sensor_id;sensor_type;location;lat;lon;timestamp;P1;durP1;ratioP1;P2;durP2;ratioP2
21032;SDS011;10675;47.976;7.824;2024-03-06T00:02:10;1.83;;;1.30;;
21032;SDS011;10675;47.976;7.824;2024-03-06T00:04:36;1.17;;;1.10;;
21032;SDS011;10675;47.976;7.824;2024-03-06T00:07:01;1.20;;;1.10;;
21032;SDS011;10675;47.976;7.824;2024-03-06T00:09:27;1.73;;;1.40;;
21032;SDS011;10675;47.976;7.824;2024-03-06T00:11:53;1.40;;;1.33;;
21032;SDS011;10675;47.976;7.824;2024-03-06T00:14:19;1.97;;;1.60;;
21032;SDS011;10675;47.976;7.824;2024-03-06T00:16:49;1.30;;;1.10;;
21032;SDS011;10675;47.976;7.824;2024-03-06T00:19:18;1.90;;;1.57;;
21032;SDS011;10675;47.976;7.824;2024-03-06T00:21:44;1.40;;;1.30;;
21032;SDS011;10675;47.976;7.824;2024-03-06T00:24:13;1.40;;;1.30;;
21032;SDS011;10675;47.976;7.824;2024-03-06T00:26:40;1.70;;;1.60;;
21032;SDS011;10675;47.976;7.824;2024-03-06T00:29:09;1.13;;;1.13;;
21032;SDS011;10675;47.976;7.824;2024-03-06T00:31:35;1.27;;;1.23;;
21032;SDS011;10675;47.976;7.824;2024-03-06T00:34:00;2.70;;;1.60;;
21032;SDS011;10675;47.976;7.824;2024-03-06T00:36:26;1.33;;;1.23;;
21032;SDS011;10675;47.976;7.824;2024-03-06T00:38:52;2.30;;;1.30;;
21032;SDS011;10675;47.976;7.824;2024-03-06T00:41:18;1.53;;;1.40;;
21032;SDS011;10675;47.976;7.824;2024-03-06T00:43:44;1.30;;;1.20;;
21032;SDS011;10675;47.976;7.824;2024-03-06T00:46:10;2.00;;;1.37;;
21032;SDS011;10675;47.976;7.824;2024-03-06T00:48:36;1.40;;;1.30;;
21032;SDS011;10675;47.976;7.824;2024-03-06T00:51:03;1.87;;;1.77;;
21032;SDS011;10675;47.976;7.824;2024-03-06T00:53:30;1.27;;;1.13;;
21032;SDS011;10675;47.976;7.824;2024-03-06T00:55:55;1.00;;;1.00;;
21032;SDS011;10675;47.976;7.824;2024-03-06T00:58:21;0.77;;;0.77;;
21032;SDS011;10675;47.976;7.824;2024-03-06T01:00:46;1.10;;;1.10;;
21032;SDS011;10675;47.976;7.824;2024-03-06T01:03:12;0.90;;;0.90;;
21032;SDS011;10675;47.976;7.824;2024-03-06T01:05:37;1.00;;;0.90;;
21032;SDS011;10675;47.976;7.824;2024-03-06T01:08:03;1.07;;;0.93;;
21032;SDS011;10675;47.976;7.824;2024-03-06T01:10:28;0.90;;;0.90;;
21032;SDS011;10675;47.976;7.824;2024-03-06T01:12:54;1.60;;;1.20;;
21032;SDS011;10675;47.976;7.824;2024-03-06T01:15:19;2.50;;;1.07;;
21032;SDS011;10675;47.976;7.824;2024-03-06T01:17:45;3.03;;;1.20;;
21032;SDS011;10675;47.976;7.824;2024-03-06T01:20:11;2.30;;;1.20;;
21032;SDS011;10675;47.976;7.824;2024-03-06T01:22:37;2.90;;;1.23;;
21032;SDS011;10675;47.976;7.824;2024-03-06T01:25:03;1.03;;;1.00;;
21032;SDS011;10675;47.976;7.824;2024-03-06T01:27:29;1.77;;;1.00;;
21032;SDS011;10675;47.976;7.824;2024-03-06T01:29:55;1.17;;;1.07;;
21032;SDS011;10675;47.976;7.824;2024-03-06T01:32:21;1.30;;;1.17;;
21032;SDS011;10675;47.976;7.824;2024-03-06T01:34:46;2.83;;;1.40;;
21032;SDS011;10675;47.976;7.824;2024-03-06T01:37:12;1.23;;;1.10;;
21032;SDS011;10675;47.976;7.824;2024-03-06T01:39:37;2.33;;;1.50;;
21032;SDS011;10675;47.976;7.824;2024-03-06T01:42:03;1.40;;;1.30;;
21032;SDS011;10675;47.976;7.824;2024-03-06T01:44:28;1.70;;;1.60;;
21032;SDS011;10675;47.976;7.824;2024-03-06T01:46:54;2.30;;;1.20;;
21032;SDS011;10675;47.976;7.824;2024-03-06T01:49:20;2.40;;;1.20;;
21032;SDS011;10675;47.976;7.824;2024-03-06T01:51:51;1.43;;;1.30;;
21032;SDS011;10675;47.976;7.824;2024-03-06T01:54:20;1.23;;;1.13;;
21032;SDS011;10675;47.976;7.824;2024-03-06T01:56:46;1.53;;;1.30;;
21032;SDS011;10675;47.976;7.824;2024-03-06T01:59:13;1.80;;;1.43;;
21032;SDS011;10675;47.976;7.824;2024-03-06T02:01:40;1.27;;;1.13;;
21032;SDS011;10675;47.976;7.824;2024-03-06T02:04:06;1.40;;;1.30;;
21032;SDS011;10675;47.976;7.824;2024-03-06T02:06:34;1.70;;;1.50;;
21032;SDS011;10675;47.976;7.824;2024-03-06T02:09:00;1.10;;;1.10;;
21032;SDS011;10675;47.976;7.824;2024-03-06T02:11:26;1.43;;;1.23;;
21032;SDS011;10675;47.976;7.824;2024-03-06T02:13:51;1.10;;;1.10;;
21032;SDS011;10675;47.976;7.824;2024-03-06T02:16:17;1.40;;;1.30;;
21032;SDS011;10675;47.976;7.824;2024-03-06T02:18:52;1.50;;;1.40;;
21032;SDS011;10675;47.976;7.824;2024-03-06T02:21:22;1.33;;;1.23;;
21032;SDS011;10675;47.976;7.824;2024-03-06T02:23:49;1.73;;;1.23;;
21032;SDS011;10675;47.976;7.824;2024-03-06T02:26:16;1.60;;;1.30;;
21032;SDS011;10675;47.976;7.824;2024-03-06T02:31:15;1.20;;;1.10;;
21032;SDS011;10675;47.976;7.824;2024-03-06T02:33:41;1.10;;;1.10;;
21032;SDS011;10675;47.976;7.824;2024-03-06T02:36:07;2.77;;;1.27;;
21032;SDS011;10675;47.976;7.824;2024-03-06T02:38:32;1.73;;;1.30;;
21032;SDS011;10675;47.976;7.824;2024-03-06T02:40:58;1.27;;;1.17;;
21032;SDS011;10675;47.976;7.824;2024-03-06T02:43:24;1.40;;;1.30;;
21032;SDS011;10675;47.976;7.824;2024-03-06T02:45:49;1.70;;;1.30;;
21032;SDS011;10675;47.976;7.824;2024-03-06T02:48:15;1.60;;;1.50;;
21032;SDS011;10675;47.976;7.824;2024-03-06T02:50:40;2.13;;;1.47;;
21032;SDS011;10675;47.976;7.824;2024-03-06T02:53:06;1.30;;;1.20;;
21032;SDS011;10675;47.976;7.824;2024-03-06T02:55:32;1.10;;;1.10;;
21032;SDS011;10675;47.976;7.824;2024-03-06T02:58:00;2.57;;;1.67;;
21032;SDS011;10675;47.976;7.824;2024-03-06T03:00:27;1.20;;;1.10;;
21032;SDS011;10675;47.976;7.824;2024-03-06T03:02:53;1.90;;;1.60;;
21032;SDS011;10675;47.976;7.824;2024-03-06T03:05:18;1.77;;;1.40;;
21032;SDS011;10675;47.976;7.824;2024-03-06T03:07:44;1.73;;;1.37;;
21032;SDS011;10675;47.976;7.824;2024-03-06T03:10:09;2.53;;;1.57;;
21032;SDS011;10675;47.976;7.824;2024-03-06T03:12:35;1.43;;;1.33;;
21032;SDS011;10675;47.976;7.824;2024-03-06T03:15:03;1.60;;;1.40;;
21032;SDS011;10675;47.976;7.824;2024-03-06T03:17:29;2.27;;;2.03;;
21032;SDS011;10675;47.976;7.824;2024-03-06T03:19:54;1.70;;;1.60;;
21032;SDS011;10675;47.976;7.824;2024-03-06T03:22:20;2.20;;;1.93;;
21032;SDS011;10675;47.976;7.824;2024-03-06T03:24:46;3.00;;;2.43;;
21032;SDS011;10675;47.976;7.824;2024-03-06T03:27:12;2.67;;;2.10;;
21032;SDS011;10675;47.976;7.824;2024-03-06T03:29:38;2.27;;;2.00;;
21032;SDS011;10675;47.976;7.824;2024-03-06T03:32:04;2.13;;;1.93;;
21032;SDS011;10675;47.976;7.824;2024-03-06T03:34:30;2.60;;;1.73;;
21032;SDS011;10675;47.976;7.824;2024-03-06T03:36:56;1.83;;;1.73;;
21032;SDS011;10675;47.976;7.824;2024-03-06T03:39:21;2.57;;;2.37;;
21032;SDS011;10675;47.976;7.824;2024-03-06T03:41:49;3.00;;;2.00;;
21032;SDS011;10675;47.976;7.824;2024-03-06T03:44:18;2.37;;;2.20;;
21032;SDS011;10675;47.976;7.824;2024-03-06T03:46:44;2.10;;;2.00;;
21032;SDS011;10675;47.976;7.824;2024-03-06T03:49:10;2.60;;;2.30;;
21032;SDS011;10675;47.976;7.824;2024-03-06T03:51:37;2.53;;;2.30;;
21032;SDS011;10675;47.976;7.824;2024-03-06T03:54:03;2.73;;;2.10;;
21032;SDS011;10675;47.976;7.824;2024-03-06T03:56:29;2.37;;;2.17;;
21032;SDS011;10675;47.976;7.824;2024-03-06T03:58:55;2.57;;;2.10;;
21032;SDS011;10675;47.976;7.824;2024-03-06T04:01:24;2.50;;;2.30;;
21032;SDS011;10675;47.976;7.824;2024-03-06T04:03:50;4.07;;;2.33;;
21032;SDS011;10675;47.976;7.824;2024-03-06T04:06:16;2.27;;;2.10;;
21032;SDS011;10675;47.976;7.824;2024-03-06T04:08:42;2.20;;;1.90;;
21032;SDS011;10675;47.976;7.824;2024-03-06T04:11:07;2.53;;;1.80;;
21032;SDS011;10675;47.976;7.824;2024-03-06T04:13:36;2.23;;;2.03;;
21032;SDS011;10675;47.976;7.824;2024-03-06T04:16:03;2.20;;;2.00;;
21032;SDS011;10675;47.976;7.824;2024-03-06T04:18:29;1.80;;;1.70;;
21032;SDS011;10675;47.976;7.824;2024-03-06T04:21:05;2.07;;;1.93;;
21032;SDS011;10675;47.976;7.824;2024-03-06T04:23:31;2.07;;;1.73;;
21032;SDS011;10675;47.976;7.824;2024-03-06T04:25:58;1.80;;;1.70;;
21032;SDS011;10675;47.976;7.824;2024-03-06T04:28:24;1.70;;;1.60;;
21032;SDS011;10675;47.976;7.824;2024-03-06T04:30:49;1.80;;;1.63;;
21032;SDS011;10675;47.976;7.824;2024-03-06T04:33:15;2.20;;;2.00;;
21032;SDS011;10675;47.976;7.824;2024-03-06T04:35:40;1.60;;;1.50;;
21032;SDS011;10675;47.976;7.824;2024-03-06T04:38:06;1.70;;;1.53;;
21032;SDS011;10675;47.976;7.824;2024-03-06T04:40:32;2.17;;;1.83;;
21032;SDS011;10675;47.976;7.824;2024-03-06T04:42:59;3.00;;;1.87;;
21032;SDS011;10675;47.976;7.824;2024-03-06T04:45:25;1.63;;;1.53;;
21032;SDS011;10675;47.976;7.824;2024-03-06T04:47:50;2.00;;;1.60;;
21032;SDS011;10675;47.976;7.824;2024-03-06T04:50:16;1.57;;;1.47;;
21032;SDS011;10675;47.976;7.824;2024-03-06T04:52:42;1.90;;;1.80;;
21032;SDS011;10675;47.976;7.824;2024-03-06T04:55:09;1.60;;;1.50;;
21032;SDS011;10675;47.976;7.824;2024-03-06T04:57:36;2.13;;;1.50;;
21032;SDS011;10675;47.976;7.824;2024-03-06T05:00:02;1.40;;;1.30;;
21032;SDS011;10675;47.976;7.824;2024-03-06T05:02:31;1.70;;;1.53;;
21032;SDS011;10675;47.976;7.824;2024-03-06T05:04:59;1.90;;;1.40;;
21032;SDS011;10675;47.976;7.824;2024-03-06T05:07:25;1.33;;;1.23;;
21032;SDS011;10675;47.976;7.824;2024-03-06T05:09:52;1.57;;;1.40;;
21032;SDS011;10675;47.976;7.824;2024-03-06T05:12:17;1.50;;;1.40;;
21032;SDS011;10675;47.976;7.824;2024-03-06T05:14:43;3.50;;;1.50;;
21032;SDS011;10675;47.976;7.824;2024-03-06T05:17:08;1.37;;;1.27;;
21032;SDS011;10675;47.976;7.824;2024-03-06T05:19:35;1.50;;;1.37;;
21032;SDS011;10675;47.976;7.824;2024-03-06T05:22:01;1.70;;;1.20;;
21032;SDS011;10675;47.976;7.824;2024-03-06T05:24:27;1.53;;;1.20;;
21032;SDS011;10675;47.976;7.824;2024-03-06T05:26:52;1.07;;;0.97;;
21032;SDS011;10675;47.976;7.824;2024-03-06T05:29:18;1.20;;;1.13;;
21032;SDS011;10675;47.976;7.824;2024-03-06T05:31:43;1.17;;;1.10;;
21032;SDS011;10675;47.976;7.824;2024-03-06T05:34:09;1.60;;;1.13;;
21032;SDS011;10675;47.976;7.824;2024-03-06T05:36:34;1.27;;;1.13;;
21032;SDS011;10675;47.976;7.824;2024-03-06T05:39:00;6.53;;;1.57;;
21032;SDS011;10675;47.976;7.824;2024-03-06T05:41:26;1.50;;;1.17;;
21032;SDS011;10675;47.976;7.824;2024-03-06T05:43:51;1.40;;;1.30;;
21032;SDS011;10675;47.976;7.824;2024-03-06T05:46:17;1.13;;;1.03;;
21032;SDS011;10675;47.976;7.824;2024-03-06T05:48:44;1.60;;;1.50;;
21032;SDS011;10675;47.976;7.824;2024-03-06T05:51:10;1.50;;;1.40;;
21032;SDS011;10675;47.976;7.824;2024-03-06T05:53:36;1.47;;;1.37;;
21032;SDS011;10675;47.976;7.824;2024-03-06T05:56:04;1.40;;;1.30;;
21032;SDS011;10675;47.976;7.824;2024-03-06T05:58:30;1.30;;;1.20;;
21032;SDS011;10675;47.976;7.824;2024-03-06T06:00:56;2.93;;;1.50;;
21032;SDS011;10675;47.976;7.824;2024-03-06T06:03:21;1.43;;;1.33;;
21032;SDS011;10675;47.976;7.824;2024-03-06T06:05:47;1.03;;;1.03;;
21032;SDS011;10675;47.976;7.824;2024-03-06T06:08:12;1.43;;;1.33;;
21032;SDS011;10675;47.976;7.824;2024-03-06T06:10:38;3.97;;;1.80;;
21032;SDS011;10675;47.976;7.824;2024-03-06T06:13:04;1.70;;;1.60;;
21032;SDS011;10675;47.976;7.824;2024-03-06T06:15:29;1.60;;;1.40;;
21032;SDS011;10675;47.976;7.824;2024-03-06T06:17:55;1.60;;;1.50;;
21032;SDS011;10675;47.976;7.824;2024-03-06T06:20:21;2.53;;;1.93;;
21032;SDS011;10675;47.976;7.824;2024-03-06T06:22:46;2.50;;;1.80;;
21032;SDS011;10675;47.976;7.824;2024-03-06T06:25:12;3.03;;;1.80;;
21032;SDS011;10675;47.976;7.824;2024-03-06T06:27:38;1.40;;;1.33;;
21032;SDS011;10675;47.976;7.824;2024-03-06T06:30:04;2.07;;;1.50;;
21032;SDS011;10675;47.976;7.824;2024-03-06T06:32:30;1.60;;;1.50;;
21032;SDS011;10675;47.976;7.824;2024-03-06T06:34:56;2.57;;;1.40;;
21032;SDS011;10675;47.976;7.824;2024-03-06T06:37:21;1.60;;;1.50;;
21032;SDS011;10675;47.976;7.824;2024-03-06T06:39:47;3.30;;;1.50;;
21032;SDS011;10675;47.976;7.824;2024-03-06T06:42:13;2.90;;;1.43;;
21032;SDS011;10675;47.976;7.824;2024-03-06T06:44:38;1.70;;;1.60;;
21032;SDS011;10675;47.976;7.824;2024-03-06T06:47:04;2.40;;;2.17;;
21032;SDS011;10675;47.976;7.824;2024-03-06T06:49:30;1.47;;;1.33;;
21032;SDS011;10675;47.976;7.824;2024-03-06T06:51:55;1.50;;;1.40;;
21032;SDS011;10675;47.976;7.824;2024-03-06T06:54:21;1.73;;;1.30;;
21032;SDS011;10675;47.976;7.824;2024-03-06T06:56:46;1.50;;;1.40;;
21032;SDS011;10675;47.976;7.824;2024-03-06T06:59:12;1.53;;;1.43;;
21032;SDS011;10675;47.976;7.824;2024-03-06T07:01:38;2.00;;;1.53;;
21032;SDS011;10675;47.976;7.824;2024-03-06T07:04:05;1.27;;;1.20;;
21032;SDS011;10675;47.976;7.824;2024-03-06T07:06:31;1.60;;;1.50;;
21032;SDS011;10675;47.976;7.824;2024-03-06T07:08:57;1.63;;;1.53;;
21032;SDS011;10675;47.976;7.824;2024-03-06T07:11:22;3.23;;;2.03;;
21032;SDS011;10675;47.976;7.824;2024-03-06T07:13:49;4.70;;;1.97;;
21032;SDS011;10675;47.976;7.824;2024-03-06T07:16:14;1.63;;;1.53;;
21032;SDS011;10675;47.976;7.824;2024-03-06T07:18:40;2.57;;;1.83;;
21032;SDS011;10675;47.976;7.824;2024-03-06T07:21:05;3.50;;;1.90;;
21032;SDS011;10675;47.976;7.824;2024-03-06T07:23:31;2.00;;;1.37;;
21032;SDS011;10675;47.976;7.824;2024-03-06T07:25:56;3.80;;;1.60;;
21032;SDS011;10675;47.976;7.824;2024-03-06T07:28:24;2.67;;;1.63;;
21032;SDS011;10675;47.976;7.824;2024-03-06T07:30:50;2.20;;;1.50;;
21032;SDS011;10675;47.976;7.824;2024-03-06T07:33:16;3.67;;;2.33;;
21032;SDS011;10675;47.976;7.824;2024-03-06T07:35:42;1.23;;;1.13;;
21032;SDS011;10675;47.976;7.824;2024-03-06T07:38:07;1.97;;;1.33;;
21032;SDS011;10675;47.976;7.824;2024-03-06T07:40:33;2.73;;;1.67;;
21032;SDS011;10675;47.976;7.824;2024-03-06T07:42:58;3.87;;;1.63;;
21032;SDS011;10675;47.976;7.824;2024-03-06T07:45:24;1.20;;;0.83;;
21032;SDS011;10675;47.976;7.824;2024-03-06T07:47:51;1.03;;;1.00;;
21032;SDS011;10675;47.976;7.824;2024-03-06T07:50:16;3.23;;;1.73;;
21032;SDS011;10675;47.976;7.824;2024-03-06T07:52:44;1.40;;;1.30;;
21032;SDS011;10675;47.976;7.824;2024-03-06T07:55:11;1.63;;;1.27;;
21032;SDS011;10675;47.976;7.824;2024-03-06T07:57:36;3.10;;;1.43;;
21032;SDS011;10675;47.976;7.824;2024-03-06T08:00:02;2.00;;;1.37;;
21032;SDS011;10675;47.976;7.824;2024-03-06T08:02:39;2.47;;;1.43;;
21032;SDS011;10675;47.976;7.824;2024-03-06T08:05:10;3.03;;;1.70;;
21032;SDS011;10675;47.976;7.824;2024-03-06T08:07:39;2.00;;;1.40;;
21032;SDS011;10675;47.976;7.824;2024-03-06T08:10:09;4.80;;;1.70;;
21032;SDS011;10675;47.976;7.824;2024-03-06T08:12:38;3.17;;;1.50;;
21032;SDS011;10675;47.976;7.824;2024-03-06T08:15:05;1.43;;;1.30;;
21032;SDS011;10675;47.976;7.824;2024-03-06T08:17:34;3.93;;;1.47;;
21032;SDS011;10675;47.976;7.824;2024-03-06T08:20:00;1.67;;;0.80;;
21032;SDS011;10675;47.976;7.824;2024-03-06T08:22:25;3.17;;;1.40;;
21032;SDS011;10675;47.976;7.824;2024-03-06T08:24:52;1.30;;;0.97;;
21032;SDS011;10675;47.976;7.824;2024-03-06T08:27:17;1.20;;;1.10;;
21032;SDS011;10675;47.976;7.824;2024-03-06T08:29:44;1.07;;;0.97;;
21032;SDS011;10675;47.976;7.824;2024-03-06T08:32:09;1.30;;;1.20;;
21032;SDS011;10675;47.976;7.824;2024-03-06T08:34:35;1.53;;;1.20;;
21032;SDS011;10675;47.976;7.824;2024-03-06T08:37:01;2.63;;;1.33;;
21032;SDS011;10675;47.976;7.824;2024-03-06T08:39:27;0.87;;;0.83;;
21032;SDS011;10675;47.976;7.824;2024-03-06T08:41:52;2.23;;;1.10;;
21032;SDS011;10675;47.976;7.824;2024-03-06T08:44:18;2.00;;;1.80;;
21032;SDS011;10675;47.976;7.824;2024-03-06T08:46:43;1.57;;;1.47;;
21032;SDS011;10675;47.976;7.824;2024-03-06T08:49:09;2.50;;;1.50;;
21032;SDS011;10675;47.976;7.824;2024-03-06T08:51:35;1.43;;;1.33;;
21032;SDS011;10675;47.976;7.824;2024-03-06T08:54:01;1.57;;;1.30;;
21032;SDS011;10675;47.976;7.824;2024-03-06T08:56:27;1.37;;;1.10;;
21032;SDS011;10675;47.976;7.824;2024-03-06T08:58:53;2.10;;;1.40;;
21032;SDS011;10675;47.976;7.824;2024-03-06T09:01:18;1.80;;;1.37;;
21032;SDS011;10675;47.976;7.824;2024-03-06T09:03:44;6.27;;;1.70;;
21032;SDS011;10675;47.976;7.824;2024-03-06T09:06:09;2.27;;;1.50;;
21032;SDS011;10675;47.976;7.824;2024-03-06T09:08:35;3.13;;;1.60;;
21032;SDS011;10675;47.976;7.824;2024-03-06T09:11:01;1.37;;;1.27;;
21032;SDS011;10675;47.976;7.824;2024-03-06T09:13:27;0.97;;;0.90;;
21032;SDS011;10675;47.976;7.824;2024-03-06T09:15:53;1.20;;;1.13;;
21032;SDS011;10675;47.976;7.824;2024-03-06T09:18:18;1.73;;;1.30;;
21032;SDS011;10675;47.976;7.824;2024-03-06T09:20:44;1.87;;;1.40;;
21032;SDS011;10675;47.976;7.824;2024-03-06T09:23:09;2.40;;;1.40;;
21032;SDS011;10675;47.976;7.824;2024-03-06T09:25:35;1.40;;;1.30;;
21032;SDS011;10675;47.976;7.824;2024-03-06T09:28:01;1.20;;;1.10;;
21032;SDS011;10675;47.976;7.824;2024-03-06T09:30:29;1.40;;;0.90;;
21032;SDS011;10675;47.976;7.824;2024-03-06T09:32:55;0.80;;;0.80;;
21032;SDS011;10675;47.976;7.824;2024-03-06T09:35:20;1.10;;;1.00;;
21032;SDS011;10675;47.976;7.824;2024-03-06T09:37:46;1.30;;;1.20;;
21032;SDS011;10675;47.976;7.824;2024-03-06T09:40:11;2.60;;;1.13;;
21032;SDS011;10675;47.976;7.824;2024-03-06T09:42:49;1.83;;;1.23;;
21032;SDS011;10675;47.976;7.824;2024-03-06T09:45:15;3.43;;;1.40;;
21032;SDS011;10675;47.976;7.824;2024-03-06T09:47:41;1.97;;;1.30;;
21032;SDS011;10675;47.976;7.824;2024-03-06T09:50:08;4.97;;;1.10;;
21032;SDS011;10675;47.976;7.824;2024-03-06T09:52:34;1.33;;;1.23;;
21032;SDS011;10675;47.976;7.824;2024-03-06T09:55:01;1.40;;;1.30;;
21032;SDS011;10675;47.976;7.824;2024-03-06T09:57:28;1.20;;;1.10;;
21032;SDS011;10675;47.976;7.824;2024-03-06T09:59:54;4.30;;;1.40;;
21032;SDS011;10675;47.976;7.824;2024-03-06T10:02:41;1.30;;;1.03;;
21032;SDS011;10675;47.976;7.824;2024-03-06T10:05:21;2.10;;;1.27;;
21032;SDS011;10675;47.976;7.824;2024-03-06T10:07:49;1.53;;;1.20;;
21032;SDS011;10675;47.976;7.824;2024-03-06T10:10:16;2.93;;;1.50;;
21032;SDS011;10675;47.976;7.824;2024-03-06T10:12:42;1.77;;;1.60;;
21032;SDS011;10675;47.976;7.824;2024-03-06T10:15:10;1.30;;;1.20;;
21032;SDS011;10675;47.976;7.824;2024-03-06T10:17:37;1.97;;;1.20;;
21032;SDS011;10675;47.976;7.824;2024-03-06T10:20:22;2.07;;;1.30;;
21032;SDS011;10675;47.976;7.824;2024-03-06T10:22:49;1.57;;;1.00;;
21032;SDS011;10675;47.976;7.824;2024-03-06T10:25:19;1.50;;;1.40;;
21032;SDS011;10675;47.976;7.824;2024-03-06T10:28:07;2.30;;;1.30;;
21032;SDS011;10675;47.976;7.824;2024-03-06T10:30:33;2.00;;;1.00;;
21032;SDS011;10675;47.976;7.824;2024-03-06T10:33:01;1.27;;;1.17;;
21032;SDS011;10675;47.976;7.824;2024-03-06T10:35:31;2.00;;;0.90;;
21032;SDS011;10675;47.976;7.824;2024-03-06T10:38:02;1.57;;;0.83;;
21032;SDS011;10675;47.976;7.824;2024-03-06T10:40:32;0.80;;;0.80;;
21032;SDS011;10675;47.976;7.824;2024-03-06T10:43:03;2.20;;;1.20;;
21032;SDS011;10675;47.976;7.824;2024-03-06T10:48:09;1.93;;;1.00;;
21032;SDS011;10675;47.976;7.824;2024-03-06T10:50:38;4.70;;;0.90;;
21032;SDS011;10675;47.976;7.824;2024-03-06T10:53:15;1.30;;;0.83;;
21032;SDS011;10675;47.976;7.824;2024-03-06T10:55:44;4.87;;;1.30;;
21032;SDS011;10675;47.976;7.824;2024-03-06T10:58:10;2.73;;;0.90;;
21032;SDS011;10675;47.976;7.824;2024-03-06T11:00:40;0.90;;;0.73;;
21032;SDS011;10675;47.976;7.824;2024-03-06T11:03:07;0.90;;;0.90;;
21032;SDS011;10675;47.976;7.824;2024-03-06T11:05:44;1.87;;;1.03;;
21032;SDS011;10675;47.976;7.824;2024-03-06T11:08:15;1.13;;;0.80;;
21032;SDS011;10675;47.976;7.824;2024-03-06T11:10:42;1.93;;;0.80;;
21032;SDS011;10675;47.976;7.824;2024-03-06T11:15:46;2.67;;;1.07;;
21032;SDS011;10675;47.976;7.824;2024-03-06T11:21:45;2.27;;;1.10;;
21032;SDS011;10675;47.976;7.824;2024-03-06T11:24:12;0.83;;;0.83;;
21032;SDS011;10675;47.976;7.824;2024-03-06T11:32:56;1.10;;;1.00;;
21032;SDS011;10675;47.976;7.824;2024-03-06T11:35:28;1.77;;;1.00;;
21032;SDS011;10675;47.976;7.824;2024-03-06T11:37:54;1.00;;;0.90;;
21032;SDS011;10675;47.976;7.824;2024-03-06T11:40:23;0.80;;;0.80;;
21032;SDS011;10675;47.976;7.824;2024-03-06T11:42:49;1.00;;;1.00;;
21032;SDS011;10675;47.976;7.824;2024-03-06T11:45:17;1.47;;;1.00;;
21032;SDS011;10675;47.976;7.824;2024-03-06T11:47:59;0.90;;;0.80;;
21032;SDS011;10675;47.976;7.824;2024-03-06T11:50:26;0.90;;;0.80;;
21032;SDS011;10675;47.976;7.824;2024-03-06T11:52:58;1.13;;;0.87;;
21032;SDS011;10675;47.976;7.824;2024-03-06T11:55:24;1.27;;;0.80;;
21032;SDS011;10675;47.976;7.824;2024-03-06T11:57:53;0.77;;;0.77;;
21032;SDS011;10675;47.976;7.824;2024-03-06T12:00:21;0.70;;;0.70;;
21032;SDS011;10675;47.976;7.824;2024-03-06T12:02:47;3.60;;;0.70;;
21032;SDS011;10675;47.976;7.824;2024-03-06T12:05:13;0.83;;;0.70;;
21032;SDS011;10675;47.976;7.824;2024-03-06T12:07:49;1.17;;;0.80;;
21032;SDS011;10675;47.976;7.824;2024-03-06T12:10:18;0.80;;;0.80;;
21032;SDS011;10675;47.976;7.824;2024-03-06T12:12:44;1.70;;;1.10;;
21032;SDS011;10675;47.976;7.824;2024-03-06T12:15:10;0.90;;;0.90;;
21032;SDS011;10675;47.976;7.824;2024-03-06T12:17:46;1.70;;;1.00;;
21032;SDS011;10675;47.976;7.824;2024-03-06T12:20:13;0.70;;;0.70;;
21032;SDS011;10675;47.976;7.824;2024-03-06T12:25:20;1.07;;;0.70;;
21032;SDS011;10675;47.976;7.824;2024-03-06T12:27:48;3.23;;;0.90;;
21032;SDS011;10675;47.976;7.824;2024-03-06T12:30:17;1.27;;;0.83;;
21032;SDS011;10675;47.976;7.824;2024-03-06T12:32:44;0.73;;;0.73;;
21032;SDS011;10675;47.976;7.824;2024-03-06T12:35:10;0.73;;;0.70;;
21032;SDS011;10675;47.976;7.824;2024-03-06T12:37:36;0.70;;;0.70;;
21032;SDS011;10675;47.976;7.824;2024-03-06T12:40:02;1.67;;;0.60;;
21032;SDS011;10675;47.976;7.824;2024-03-06T12:42:29;1.80;;;0.77;;
21032;SDS011;10675;47.976;7.824;2024-03-06T12:44:55;0.83;;;0.80;;
21032;SDS011;10675;47.976;7.824;2024-03-06T12:47:22;2.20;;;0.83;;
21032;SDS011;10675;47.976;7.824;2024-03-06T12:49:47;1.23;;;0.90;;
21032;SDS011;10675;47.976;7.824;2024-03-06T12:52:13;1.20;;;0.90;;
21032;SDS011;10675;47.976;7.824;2024-03-06T12:54:39;1.70;;;0.87;;
21032;SDS011;10675;47.976;7.824;2024-03-06T12:57:04;0.80;;;0.80;;
21032;SDS011;10675;47.976;7.824;2024-03-06T12:59:30;1.70;;;1.20;;
21032;SDS011;10675;47.976;7.824;2024-03-06T13:01:55;0.83;;;0.70;;
21032;SDS011;10675;47.976;7.824;2024-03-06T13:04:22;1.10;;;1.00;;
21032;SDS011;10675;47.976;7.824;2024-03-06T13:06:47;4.00;;;1.07;;
21032;SDS011;10675;47.976;7.824;2024-03-06T13:09:13;1.80;;;0.87;;
21032;SDS011;10675;47.976;7.824;2024-03-06T13:11:39;2.73;;;1.20;;
21032;SDS011;10675;47.976;7.824;2024-03-06T13:14:06;1.10;;;0.97;;
21032;SDS011;10675;47.976;7.824;2024-03-06T13:16:35;1.37;;;0.77;;
21032;SDS011;10675;47.976;7.824;2024-03-06T13:19:00;1.63;;;1.10;;
21032;SDS011;10675;47.976;7.824;2024-03-06T13:21:28;1.97;;;1.00;;
21032;SDS011;10675;47.976;7.824;2024-03-06T13:23:53;1.00;;;1.00;;
21032;SDS011;10675;47.976;7.824;2024-03-06T13:26:19;0.80;;;0.80;;
21032;SDS011;10675;47.976;7.824;2024-03-06T13:28:45;2.33;;;1.20;;
21032;SDS011;10675;47.976;7.824;2024-03-06T13:31:11;0.80;;;0.80;;
21032;SDS011;10675;47.976;7.824;2024-03-06T13:33:36;0.80;;;0.80;;
21032;SDS011;10675;47.976;7.824;2024-03-06T13:36:02;1.03;;;1.00;;
21032;SDS011;10675;47.976;7.824;2024-03-06T13:38:28;2.90;;;0.87;;
21032;SDS011;10675;47.976;7.824;2024-03-06T13:40:54;0.80;;;0.80;;
21032;SDS011;10675;47.976;7.824;2024-03-06T13:43:19;1.57;;;0.97;;
21032;SDS011;10675;47.976;7.824;2024-03-06T13:45:51;1.47;;;0.80;;
21032;SDS011;10675;47.976;7.824;2024-03-06T13:48:17;0.90;;;0.90;;
21032;SDS011;10675;47.976;7.824;2024-03-06T13:50:44;1.53;;;0.90;;
21032;SDS011;10675;47.976;7.824;2024-03-06T13:53:10;3.30;;;1.20;;
21032;SDS011;10675;47.976;7.824;2024-03-06T13:55:36;3.00;;;1.20;;
21032;SDS011;10675;47.976;7.824;2024-03-06T13:58:01;2.07;;;0.90;;
21032;SDS011;10675;47.976;7.824;2024-03-06T14:00:27;1.70;;;0.93;;
21032;SDS011;10675;47.976;7.824;2024-03-06T14:02:53;2.20;;;1.17;;
21032;SDS011;10675;47.976;7.824;2024-03-06T14:05:18;3.37;;;1.60;;
21032;SDS011;10675;47.976;7.824;2024-03-06T14:07:53;3.60;;;1.30;;
21032;SDS011;10675;47.976;7.824;2024-03-06T14:10:20;1.93;;;1.20;;
21032;SDS011;10675;47.976;7.824;2024-03-06T14:12:47;1.33;;;0.83;;
21032;SDS011;10675;47.976;7.824;2024-03-06T14:15:12;3.47;;;1.27;;
21032;SDS011;10675;47.976;7.824;2024-03-06T14:17:40;1.07;;;0.97;;
21032;SDS011;10675;47.976;7.824;2024-03-06T14:20:06;3.20;;;1.37;;
21032;SDS011;10675;47.976;7.824;2024-03-06T14:22:32;1.20;;;1.10;;
21032;SDS011;10675;47.976;7.824;2024-03-06T14:24:58;1.37;;;1.23;;
21032;SDS011;10675;47.976;7.824;2024-03-06T14:27:23;4.60;;;1.60;;
21032;SDS011;10675;47.976;7.824;2024-03-06T14:29:49;3.57;;;1.33;;
21032;SDS011;10675;47.976;7.824;2024-03-06T14:32:16;2.07;;;1.10;;
21032;SDS011;10675;47.976;7.824;2024-03-06T14:34:44;1.87;;;1.50;;
21032;SDS011;10675;47.976;7.824;2024-03-06T14:37:10;3.93;;;1.57;;
21032;SDS011;10675;47.976;7.824;2024-03-06T14:39:35;2.40;;;1.47;;
21032;SDS011;10675;47.976;7.824;2024-03-06T14:42:01;1.30;;;1.20;;
21032;SDS011;10675;47.976;7.824;2024-03-06T14:44:26;2.20;;;1.13;;
21032;SDS011;10675;47.976;7.824;2024-03-06T14:46:52;4.00;;;1.37;;
21032;SDS011;10675;47.976;7.824;2024-03-06T14:49:18;1.37;;;1.20;;
21032;SDS011;10675;47.976;7.824;2024-03-06T14:51:43;5.97;;;2.50;;
21032;SDS011;10675;47.976;7.824;2024-03-06T14:54:09;2.40;;;1.40;;
21032;SDS011;10675;47.976;7.824;2024-03-06T14:56:34;3.67;;;1.40;;
21032;SDS011;10675;47.976;7.824;2024-03-06T14:59:00;1.43;;;1.30;;
21032;SDS011;10675;47.976;7.824;2024-03-06T15:01:26;0.97;;;0.97;;
21032;SDS011;10675;47.976;7.824;2024-03-06T15:03:52;2.00;;;1.30;;
21032;SDS011;10675;47.976;7.824;2024-03-06T15:06:19;1.17;;;1.17;;